sensor_id;sensor_type;location;lat;lon;timestamp;temperature;humidity
5560;DHT22;2803;47.916;8.074;2022-11-11T00:00:50;5.60;99.90
5560;DHT22;2803;47.916;8.074;2022-11-11T00:03:16;5.60;99.90
5560;DHT22;2803;47.916;8.074;2022-11-11T00:05:43;6.00;99.90
5560;DHT22;2803;47.916;8.074;2022-11-11T00:08:10;5.90;99.90
5560;DHT22;2803;47.916;8.074;2022-11-11T00:10:36;5.80;99.90
5560;DHT22;2803;47.916;8.074;2022-11-11T00:13:03;5.40;99.90
5560;DHT22;2803;47.916;8.074;2022-11-11T00:15:35;5.60;99.90
5560;DHT22;2803;47.916;8.074;2022-11-11T00:18:03;5.70;99.90
5560;DHT22;2803;47.916;8.074;2022-11-11T00:20:43;5.40;99.90
5560;DHT22;2803;47.916;8.074;2022-11-11T00:23:26;5.50;99.90
5560;DHT22;2803;47.916;8.074;2022-11-11T00:26:07;5.50;99.90
5560;DHT22;2803;47.916;8.074;2022-11-11T00:28:35;5.20;99.90
5560;DHT22;2803;47.916;8.074;2022-11-11T00:31:05;5.50;99.90
5560;DHT22;2803;47.916;8.074;2022-11-11T00:33:32;5.70;99.90
5560;DHT22;2803;47.916;8.074;2022-11-11T00:35:59;5.70;99.90
5560;DHT22;2803;47.916;8.074;2022-11-11T00:38:26;5.20;99.90
5560;DHT22;2803;47.916;8.074;2022-11-11T00:41:09;5.60;99.90
5560;DHT22;2803;47.916;8.074;2022-11-11T00:43:36;5.50;99.90
5560;DHT22;2803;47.916;8.074;2022-11-11T00:46:04;5.80;99.90
5560;DHT22;2803;47.916;8.074;2022-11-11T00:48:44;5.80;99.90
5560;DHT22;2803;47.916;8.074;2022-11-11T00:51:25;5.40;99.90
5560;DHT22;2803;47.916;8.074;2022-11-11T00:53:52;5.30;99.90
5560;DHT22;2803;47.916;8.074;2022-11-11T00:56:19;5.30;99.90
5560;DHT22;2803;47.916;8.074;2022-11-11T00:58:46;5.10;99.90
5560;DHT22;2803;47.916;8.074;2022-11-11T01:01:14;4.90;99.90
5560;DHT22;2803;47.916;8.074;2022-11-11T01:03:41;5.00;99.90
5560;DHT22;2803;47.916;8.074;2022-11-11T01:06:09;5.10;99.90
5560;DHT22;2803;47.916;8.074;2022-11-11T01:08:36;4.80;99.90
5560;DHT22;2803;47.916;8.074;2022-11-11T01:11:03;5.10;99.90
5560;DHT22;2803;47.916;8.074;2022-11-11T01:13:31;5.10;99.90
5560;DHT22;2803;47.916;8.074;2022-11-11T01:16:00;4.80;99.90
5560;DHT22;2803;47.916;8.074;2022-11-11T01:18:28;4.60;99.90
5560;DHT22;2803;47.916;8.074;2022-11-11T01:20:58;5.00;99.90
5560;DHT22;2803;47.916;8.074;2022-11-11T01:23:25;5.80;99.90
5560;DHT22;2803;47.916;8.074;2022-11-11T01:25:52;5.40;99.90
5560;DHT22;2803;47.916;8.074;2022-11-11T01:28:18;5.60;99.90
5560;DHT22;2803;47.916;8.074;2022-11-11T01:30:45;5.10;99.90
5560;DHT22;2803;47.916;8.074;2022-11-11T01:33:11;4.80;99.90
5560;DHT22;2803;47.916;8.074;2022-11-11T01:35:40;5.30;99.90
5560;DHT22;2803;47.916;8.074;2022-11-11T01:38:08;5.80;99.90
5560;DHT22;2803;47.916;8.074;2022-11-11T01:40:43;5.60;99.90
5560;DHT22;2803;47.916;8.074;2022-11-11T01:43:20;5.40;99.90
5560;DHT22;2803;47.916;8.074;2022-11-11T01:45:51;5.70;99.90
5560;DHT22;2803;47.916;8.074;2022-11-11T01:48:22;5.70;99.90
5560;DHT22;2803;47.916;8.074;2022-11-11T01:51:12;6.10;99.90
5560;DHT22;2803;47.916;8.074;2022-11-11T01:53:40;5.80;99.90
5560;DHT22;2803;47.916;8.074;2022-11-11T01:56:08;5.60;99.90
5560;DHT22;2803;47.916;8.074;2022-11-11T01:58:35;5.40;99.90
5560;DHT22;2803;47.916;8.074;2022-11-11T02:01:03;5.50;99.90
5560;DHT22;2803;47.916;8.074;2022-11-11T02:03:34;5.90;99.90
5560;DHT22;2803;47.916;8.074;2022-11-11T02:06:01;6.10;99.90
5560;DHT22;2803;47.916;8.074;2022-11-11T02:08:31;6.30;99.90
5560;DHT22;2803;47.916;8.074;2022-11-11T02:11:02;6.40;99.90
5560;DHT22;2803;47.916;8.074;2022-11-11T02:13:30;6.30;99.90
5560;DHT22;2803;47.916;8.074;2022-11-11T02:16:11;5.90;99.90
5560;DHT22;2803;47.916;8.074;2022-11-11T02:18:38;5.70;99.90
5560;DHT22;2803;47.916;8.074;2022-11-11T02:21:04;5.70;99.90
5560;DHT22;2803;47.916;8.074;2022-11-11T02:23:37;5.50;99.90
5560;DHT22;2803;47.916;8.074;2022-11-11T02:26:08;5.60;99.90
5560;DHT22;2803;47.916;8.074;2022-11-11T02:28:37;5.80;99.90
5560;DHT22;2803;47.916;8.074;2022-11-11T02:31:04;6.10;99.90
5560;DHT22;2803;47.916;8.074;2022-11-11T02:33:31;6.60;99.90
5560;DHT22;2803;47.916;8.074;2022-11-11T02:35:58;6.10;99.90
5560;DHT22;2803;47.916;8.074;2022-11-11T02:38:26;5.50;99.90
5560;DHT22;2803;47.916;8.074;2022-11-11T02:40:54;5.10;99.90
5560;DHT22;2803;47.916;8.074;2022-11-11T02:43:36;5.10;99.90
5560;DHT22;2803;47.916;8.074;2022-11-11T02:46:04;4.60;99.90
5560;DHT22;2803;47.916;8.074;2022-11-11T02:48:31;4.50;99.90
5560;DHT22;2803;47.916;8.074;2022-11-11T02:50:57;4.40;99.90
5560;DHT22;2803;47.916;8.074;2022-11-11T02:53:24;4.40;99.90
5560;DHT22;2803;47.916;8.074;2022-11-11T02:55:51;4.30;99.90
5560;DHT22;2803;47.916;8.074;2022-11-11T02:58:17;4.40;99.90
5560;DHT22;2803;47.916;8.074;2022-11-11T03:00:45;4.70;99.90
5560;DHT22;2803;47.916;8.074;2022-11-11T03:03:12;4.70;99.90
5560;DHT22;2803;47.916;8.074;2022-11-11T03:05:38;4.50;99.90
5560;DHT22;2803;47.916;8.074;2022-11-11T03:08:05;4.40;99.90
5560;DHT22;2803;47.916;8.074;2022-11-11T03:10:32;4.30;99.90
5560;DHT22;2803;47.916;8.074;2022-11-11T03:12:58;4.40;99.90
5560;DHT22;2803;47.916;8.074;2022-11-11T03:15:25;4.30;99.90
5560;DHT22;2803;47.916;8.074;2022-11-11T03:17:53;4.60;99.90
5560;DHT22;2803;47.916;8.074;2022-11-11T03:20:19;4.70;99.90
5560;DHT22;2803;47.916;8.074;2022-11-11T03:23:01;4.90;99.90
5560;DHT22;2803;47.916;8.074;2022-11-11T03:25:28;5.40;99.90
5560;DHT22;2803;47.916;8.074;2022-11-11T03:28:10;5.40;99.90
5560;DHT22;2803;47.916;8.074;2022-11-11T03:30:38;5.00;99.90
5560;DHT22;2803;47.916;8.074;2022-11-11T03:33:07;4.90;99.90
5560;DHT22;2803;47.916;8.074;2022-11-11T03:35:34;4.70;99.90
5560;DHT22;2803;47.916;8.074;2022-11-11T03:38:01;4.80;99.90
5560;DHT22;2803;47.916;8.074;2022-11-11T03:40:42;4.40;99.90
5560;DHT22;2803;47.916;8.074;2022-11-11T03:43:09;4.30;99.90
5560;DHT22;2803;47.916;8.074;2022-11-11T03:45:36;4.50;99.90
5560;DHT22;2803;47.916;8.074;2022-11-11T03:48:03;4.70;99.90
5560;DHT22;2803;47.916;8.074;2022-11-11T03:50:32;4.70;99.90
5560;DHT22;2803;47.916;8.074;2022-11-11T03:52:59;4.50;99.90
5560;DHT22;2803;47.916;8.074;2022-11-11T03:55:25;4.90;99.90
5560;DHT22;2803;47.916;8.074;2022-11-11T03:57:52;4.90;99.90
5560;DHT22;2803;47.916;8.074;2022-11-11T04:00:20;5.20;99.90
5560;DHT22;2803;47.916;8.074;2022-11-11T04:02:48;5.30;99.90
5560;DHT22;2803;47.916;8.074;2022-11-11T04:05:28;5.00;99.90
5560;DHT22;2803;47.916;8.074;2022-11-11T04:08:13;4.70;99.90
5560;DHT22;2803;47.916;8.074;2022-11-11T04:10:54;4.80;99.90
5560;DHT22;2803;47.916;8.074;2022-11-11T04:13:21;4.50;99.90
5560;DHT22;2803;47.916;8.074;2022-11-11T04:16:01;4.80;99.90
5560;DHT22;2803;47.916;8.074;2022-11-11T04:18:31;5.20;99.90
5560;DHT22;2803;47.916;8.074;2022-11-11T04:21:12;5.00;99.90
5560;DHT22;2803;47.916;8.074;2022-11-11T04:23:54;4.30;99.90
5560;DHT22;2803;47.916;8.074;2022-11-11T04:26:20;4.40;99.90
5560;DHT22;2803;47.916;8.074;2022-11-11T04:28:46;4.60;99.90
5560;DHT22;2803;47.916;8.074;2022-11-11T04:31:27;4.90;99.90
5560;DHT22;2803;47.916;8.074;2022-11-11T04:33:54;4.80;99.90
5560;DHT22;2803;47.916;8.074;2022-11-11T04:36:19;4.80;99.90
5560;DHT22;2803;47.916;8.074;2022-11-11T04:38:46;4.80;99.90
5560;DHT22;2803;47.916;8.074;2022-11-11T04:41:28;4.70;99.90
5560;DHT22;2803;47.916;8.074;2022-11-11T04:43:54;4.80;99.90
5560;DHT22;2803;47.916;8.074;2022-11-11T04:46:35;4.50;99.90
5560;DHT22;2803;47.916;8.074;2022-11-11T04:49:01;4.50;99.90
5560;DHT22;2803;47.916;8.074;2022-11-11T04:51:28;4.40;99.90
5560;DHT22;2803;47.916;8.074;2022-11-11T04:54:15;4.60;99.90
5560;DHT22;2803;47.916;8.074;2022-11-11T04:56:42;5.00;99.90
5560;DHT22;2803;47.916;8.074;2022-11-11T04:59:15;5.20;99.90
5560;DHT22;2803;47.916;8.074;2022-11-11T05:01:42;5.60;99.90
5560;DHT22;2803;47.916;8.074;2022-11-11T05:04:22;5.90;99.90
5560;DHT22;2803;47.916;8.074;2022-11-11T05:06:49;5.40;99.90
5560;DHT22;2803;47.916;8.074;2022-11-11T05:09:30;4.80;99.90
5560;DHT22;2803;47.916;8.074;2022-11-11T05:11:59;4.90;99.90
5560;DHT22;2803;47.916;8.074;2022-11-11T05:14:25;5.00;99.90
5560;DHT22;2803;47.916;8.074;2022-11-11T05:17:08;5.10;99.90
5560;DHT22;2803;47.916;8.074;2022-11-11T05:19:49;5.00;99.90
5560;DHT22;2803;47.916;8.074;2022-11-11T05:22:32;5.10;99.90
5560;DHT22;2803;47.916;8.074;2022-11-11T05:24:59;5.00;99.90
5560;DHT22;2803;47.916;8.074;2022-11-11T05:27:41;4.80;99.90
5560;DHT22;2803;47.916;8.074;2022-11-11T05:30:10;4.80;99.90
5560;DHT22;2803;47.916;8.074;2022-11-11T05:32:38;5.50;99.90
5560;DHT22;2803;47.916;8.074;2022-11-11T05:35:06;5.40;99.90
5560;DHT22;2803;47.916;8.074;2022-11-11T05:37:33;5.50;99.90
5560;DHT22;2803;47.916;8.074;2022-11-11T05:39:59;5.40;99.90
5560;DHT22;2803;47.916;8.074;2022-11-11T05:42:26;5.20;99.90
5560;DHT22;2803;47.916;8.074;2022-11-11T05:44:54;5.30;99.90
5560;DHT22;2803;47.916;8.074;2022-11-11T05:47:20;5.40;99.90
5560;DHT22;2803;47.916;8.074;2022-11-11T05:49:47;5.60;99.90
5560;DHT22;2803;47.916;8.074;2022-11-11T05:52:15;5.50;99.90
5560;DHT22;2803;47.916;8.074;2022-11-11T05:54:42;5.50;99.90
5560;DHT22;2803;47.916;8.074;2022-11-11T05:57:09;5.60;99.90
5560;DHT22;2803;47.916;8.074;2022-11-11T05:59:36;6.00;99.90
5560;DHT22;2803;47.916;8.074;2022-11-11T06:02:03;6.50;99.90
5560;DHT22;2803;47.916;8.074;2022-11-11T06:04:30;6.40;99.90
5560;DHT22;2803;47.916;8.074;2022-11-11T06:06:58;6.10;99.90
5560;DHT22;2803;47.916;8.074;2022-11-11T06:09:25;5.90;99.90
5560;DHT22;2803;47.916;8.074;2022-11-11T06:11:52;5.50;99.90
5560;DHT22;2803;47.916;8.074;2022-11-11T06:14:18;5.00;99.90
5560;DHT22;2803;47.916;8.074;2022-11-11T06:16:45;5.10;99.90
5560;DHT22;2803;47.916;8.074;2022-11-11T06:19:13;5.60;99.90
5560;DHT22;2803;47.916;8.074;2022-11-11T06:21:39;5.60;99.90
5560;DHT22;2803;47.916;8.074;2022-11-11T06:24:20;5.50;99.90
5560;DHT22;2803;47.916;8.074;2022-11-11T06:26:46;6.20;99.90
5560;DHT22;2803;47.916;8.074;2022-11-11T06:29:12;6.80;99.90
5560;DHT22;2803;47.916;8.074;2022-11-11T06:31:38;7.20;99.90
5560;DHT22;2803;47.916;8.074;2022-11-11T06:34:05;7.30;99.90
5560;DHT22;2803;47.916;8.074;2022-11-11T06:36:33;7.60;99.90
5560;DHT22;2803;47.916;8.074;2022-11-11T06:38:59;7.80;99.90
5560;DHT22;2803;47.916;8.074;2022-11-11T06:41:26;7.50;99.90
5560;DHT22;2803;47.916;8.074;2022-11-11T06:43:53;7.60;99.90
5560;DHT22;2803;47.916;8.074;2022-11-11T06:46:22;7.50;99.90
5560;DHT22;2803;47.916;8.074;2022-11-11T06:48:49;6.80;99.90
5560;DHT22;2803;47.916;8.074;2022-11-11T06:51:24;6.10;99.90
5560;DHT22;2803;47.916;8.074;2022-11-11T06:53:52;5.90;99.90
5560;DHT22;2803;47.916;8.074;2022-11-11T06:56:18;5.90;99.90
5560;DHT22;2803;47.916;8.074;2022-11-11T06:58:45;6.20;99.90
5560;DHT22;2803;47.916;8.074;2022-11-11T07:01:12;6.20;99.90
5560;DHT22;2803;47.916;8.074;2022-11-11T07:03:39;6.50;99.90
5560;DHT22;2803;47.916;8.074;2022-11-11T07:06:05;6.30;99.90
5560;DHT22;2803;47.916;8.074;2022-11-11T07:08:32;6.10;99.90
5560;DHT22;2803;47.916;8.074;2022-11-11T07:11:01;6.10;99.90
5560;DHT22;2803;47.916;8.074;2022-11-11T07:13:27;5.80;99.90
5560;DHT22;2803;47.916;8.074;2022-11-11T07:15:54;6.30;99.90
5560;DHT22;2803;47.916;8.074;2022-11-11T07:18:21;6.20;99.90
5560;DHT22;2803;47.916;8.074;2022-11-11T07:20:47;6.70;99.90
5560;DHT22;2803;47.916;8.074;2022-11-11T07:23:14;6.70;99.90
5560;DHT22;2803;47.916;8.074;2022-11-11T07:25:42;6.30;99.90
5560;DHT22;2803;47.916;8.074;2022-11-11T07:28:10;6.60;99.90
5560;DHT22;2803;47.916;8.074;2022-11-11T07:30:37;6.10;99.90
5560;DHT22;2803;47.916;8.074;2022-11-11T07:33:04;6.20;99.90
5560;DHT22;2803;47.916;8.074;2022-11-11T07:35:30;6.10;99.90
5560;DHT22;2803;47.916;8.074;2022-11-11T07:37:57;5.90;99.90
5560;DHT22;2803;47.916;8.074;2022-11-11T07:40:23;6.00;99.90
5560;DHT22;2803;47.916;8.074;2022-11-11T07:42:50;5.60;99.90
5560;DHT22;2803;47.916;8.074;2022-11-11T07:45:18;5.80;99.90
5560;DHT22;2803;47.916;8.074;2022-11-11T07:47:44;6.30;99.90
5560;DHT22;2803;47.916;8.074;2022-11-11T07:50:12;6.30;99.90
5560;DHT22;2803;47.916;8.074;2022-11-11T07:52:39;6.20;99.90
5560;DHT22;2803;47.916;8.074;2022-11-11T07:55:06;5.90;99.90
5560;DHT22;2803;47.916;8.074;2022-11-11T07:57:33;5.80;99.90
5560;DHT22;2803;47.916;8.074;2022-11-11T08:00:00;6.10;99.90
5560;DHT22;2803;47.916;8.074;2022-11-11T08:02:28;5.90;99.90
5560;DHT22;2803;47.916;8.074;2022-11-11T08:04:54;6.00;99.90
5560;DHT22;2803;47.916;8.074;2022-11-11T08:07:21;6.00;99.90
5560;DHT22;2803;47.916;8.074;2022-11-11T08:09:48;5.90;99.90
5560;DHT22;2803;47.916;8.074;2022-11-11T08:12:14;6.00;99.90
5560;DHT22;2803;47.916;8.074;2022-11-11T08:14:55;6.10;99.90
5560;DHT22;2803;47.916;8.074;2022-11-11T08:17:22;6.10;99.90
5560;DHT22;2803;47.916;8.074;2022-11-11T08:19:49;6.10;99.90
5560;DHT22;2803;47.916;8.074;2022-11-11T08:22:16;6.50;99.90
5560;DHT22;2803;47.916;8.074;2022-11-11T08:24:43;6.70;99.90
5560;DHT22;2803;47.916;8.074;2022-11-11T08:27:09;6.90;99.90
5560;DHT22;2803;47.916;8.074;2022-11-11T08:29:36;7.60;99.90
5560;DHT22;2803;47.916;8.074;2022-11-11T08:32:03;8.20;99.90
5560;DHT22;2803;47.916;8.074;2022-11-11T08:34:30;8.40;99.90
5560;DHT22;2803;47.916;8.074;2022-11-11T08:36:57;8.80;99.90
5560;DHT22;2803;47.916;8.074;2022-11-11T08:39:25;8.70;99.90
5560;DHT22;2803;47.916;8.074;2022-11-11T08:41:52;9.10;99.90
5560;DHT22;2803;47.916;8.074;2022-11-11T08:44:18;9.70;99.90
5560;DHT22;2803;47.916;8.074;2022-11-11T08:46:45;9.80;99.90
5560;DHT22;2803;47.916;8.074;2022-11-11T08:49:11;10.10;99.90
5560;DHT22;2803;47.916;8.074;2022-11-11T08:51:38;10.10;99.90
5560;DHT22;2803;47.916;8.074;2022-11-11T08:54:06;10.10;99.90
5560;DHT22;2803;47.916;8.074;2022-11-11T08:56:33;10.00;99.90
5560;DHT22;2803;47.916;8.074;2022-11-11T08:58:59;9.90;99.90
5560;DHT22;2803;47.916;8.074;2022-11-11T09:01:26;10.40;99.90
5560;DHT22;2803;47.916;8.074;2022-11-11T09:03:52;10.50;99.90
5560;DHT22;2803;47.916;8.074;2022-11-11T09:06:19;10.70;99.90
5560;DHT22;2803;47.916;8.074;2022-11-11T09:08:46;11.10;99.90
5560;DHT22;2803;47.916;8.074;2022-11-11T09:11:14;11.60;99.90
5560;DHT22;2803;47.916;8.074;2022-11-11T09:13:40;11.30;99.90
5560;DHT22;2803;47.916;8.074;2022-11-11T09:16:07;11.20;99.90
5560;DHT22;2803;47.916;8.074;2022-11-11T09:18:34;11.10;99.90
5560;DHT22;2803;47.916;8.074;2022-11-11T09:21:01;10.90;99.90
5560;DHT22;2803;47.916;8.074;2022-11-11T09:23:27;11.20;99.90
5560;DHT22;2803;47.916;8.074;2022-11-11T09:25:54;11.60;99.90
5560;DHT22;2803;47.916;8.074;2022-11-11T09:28:23;11.50;99.90
5560;DHT22;2803;47.916;8.074;2022-11-11T09:30:50;11.50;99.90
5560;DHT22;2803;47.916;8.074;2022-11-11T09:33:17;11.40;99.90
5560;DHT22;2803;47.916;8.074;2022-11-11T09:35:45;11.60;99.90
5560;DHT22;2803;47.916;8.074;2022-11-11T09:38:12;11.40;99.90
5560;DHT22;2803;47.916;8.074;2022-11-11T09:40:48;11.30;99.90
5560;DHT22;2803;47.916;8.074;2022-11-11T09:43:27;11.70;99.90
5560;DHT22;2803;47.916;8.074;2022-11-11T09:46:04;11.80;99.90
5560;DHT22;2803;47.916;8.074;2022-11-11T09:48:43;12.20;99.90
5560;DHT22;2803;47.916;8.074;2022-11-11T09:51:17;12.00;99.90
5560;DHT22;2803;47.916;8.074;2022-11-11T09:53:50;11.90;99.90
5560;DHT22;2803;47.916;8.074;2022-11-11T09:56:19;11.80;99.90
5560;DHT22;2803;47.916;8.074;2022-11-11T09:58:50;11.70;99.90
5560;DHT22;2803;47.916;8.074;2022-11-11T10:01:21;12.20;99.90
5560;DHT22;2803;47.916;8.074;2022-11-11T10:03:53;12.10;99.90
5560;DHT22;2803;47.916;8.074;2022-11-11T10:06:27;12.50;99.90
5560;DHT22;2803;47.916;8.074;2022-11-11T10:08:57;12.50;99.90
5560;DHT22;2803;47.916;8.074;2022-11-11T10:11:35;12.80;99.90
5560;DHT22;2803;47.916;8.074;2022-11-11T10:14:06;13.40;99.90
5560;DHT22;2803;47.916;8.074;2022-11-11T10:16:39;13.70;99.90
5560;DHT22;2803;47.916;8.074;2022-11-11T10:19:22;13.90;99.90
5560;DHT22;2803;47.916;8.074;2022-11-11T10:21:56;14.10;99.90
5560;DHT22;2803;47.916;8.074;2022-11-11T10:24:27;14.40;99.90
5560;DHT22;2803;47.916;8.074;2022-11-11T10:26:55;15.10;99.90
5560;DHT22;2803;47.916;8.074;2022-11-11T10:29:27;16.20;99.90
5560;DHT22;2803;47.916;8.074;2022-11-11T10:32:00;16.80;99.90
5560;DHT22;2803;47.916;8.074;2022-11-11T10:34:32;17.00;99.90
5560;DHT22;2803;47.916;8.074;2022-11-11T10:37:00;17.30;99.90
5560;DHT22;2803;47.916;8.074;2022-11-11T10:39:33;17.90;99.90
5560;DHT22;2803;47.916;8.074;2022-11-11T10:42:04;18.30;99.90
5560;DHT22;2803;47.916;8.074;2022-11-11T10:44:37;17.90;99.90
5560;DHT22;2803;47.916;8.074;2022-11-11T10:47:11;18.10;99.90
5560;DHT22;2803;47.916;8.074;2022-11-11T10:49:43;18.50;99.90
5560;DHT22;2803;47.916;8.074;2022-11-11T10:52:17;18.70;99.90
5560;DHT22;2803;47.916;8.074;2022-11-11T10:54:48;18.70;99.90
5560;DHT22;2803;47.916;8.074;2022-11-11T10:57:20;18.60;99.90
5560;DHT22;2803;47.916;8.074;2022-11-11T10:59:53;18.30;99.90
5560;DHT22;2803;47.916;8.074;2022-11-11T11:02:25;18.20;99.90
5560;DHT22;2803;47.916;8.074;2022-11-11T11:04:55;18.40;99.90
5560;DHT22;2803;47.916;8.074;2022-11-11T11:07:27;18.40;99.90
5560;DHT22;2803;47.916;8.074;2022-11-11T11:09:58;18.80;99.90
5560;DHT22;2803;47.916;8.074;2022-11-11T11:12:29;19.10;99.90
5560;DHT22;2803;47.916;8.074;2022-11-11T11:15:02;19.20;99.90
5560;DHT22;2803;47.916;8.074;2022-11-11T11:17:35;19.20;99.90
5560;DHT22;2803;47.916;8.074;2022-11-11T11:20:09;19.30;99.90
5560;DHT22;2803;47.916;8.074;2022-11-11T11:22:46;19.70;99.90
5560;DHT22;2803;47.916;8.074;2022-11-11T11:25:14;19.90;99.90
5560;DHT22;2803;47.916;8.074;2022-11-11T11:27:41;19.90;99.90
5560;DHT22;2803;47.916;8.074;2022-11-11T11:30:12;20.10;99.90
5560;DHT22;2803;47.916;8.074;2022-11-11T11:32:39;19.90;99.90
5560;DHT22;2803;47.916;8.074;2022-11-11T11:35:09;19.80;99.90
5560;DHT22;2803;47.916;8.074;2022-11-11T11:37:48;19.80;99.90
5560;DHT22;2803;47.916;8.074;2022-11-11T11:40:15;19.20;99.90
5560;DHT22;2803;47.916;8.074;2022-11-11T11:42:42;19.00;99.90
5560;DHT22;2803;47.916;8.074;2022-11-11T11:45:22;19.30;99.90
5560;DHT22;2803;47.916;8.074;2022-11-11T11:47:59;19.30;99.90
5560;DHT22;2803;47.916;8.074;2022-11-11T11:50:41;19.10;99.90
5560;DHT22;2803;47.916;8.074;2022-11-11T11:53:23;19.10;99.90
5560;DHT22;2803;47.916;8.074;2022-11-11T11:55:54;19.10;99.90
5560;DHT22;2803;47.916;8.074;2022-11-11T11:58:32;19.00;99.90
5560;DHT22;2803;47.916;8.074;2022-11-11T12:01:05;18.80;99.90
5560;DHT22;2803;47.916;8.074;2022-11-11T12:03:48;18.60;99.90
5560;DHT22;2803;47.916;8.074;2022-11-11T12:06:26;18.20;99.90
5560;DHT22;2803;47.916;8.074;2022-11-11T12:09:03;17.90;99.90
5560;DHT22;2803;47.916;8.074;2022-11-11T12:11:36;17.80;99.90
5560;DHT22;2803;47.916;8.074;2022-11-11T12:16:58;17.50;99.90
5560;DHT22;2803;47.916;8.074;2022-11-11T12:19:38;17.30;99.90
5560;DHT22;2803;47.916;8.074;2022-11-11T12:22:16;17.00;99.90
5560;DHT22;2803;47.916;8.074;2022-11-11T12:24:54;16.70;99.90
5560;DHT22;2803;47.916;8.074;2022-11-11T12:27:32;16.30;99.90
5560;DHT22;2803;47.916;8.074;2022-11-11T12:30:06;16.30;99.90
5560;DHT22;2803;47.916;8.074;2022-11-11T12:32:57;16.30;99.90
5560;DHT22;2803;47.916;8.074;2022-11-11T12:35:34;16.30;99.90
5560;DHT22;2803;47.916;8.074;2022-11-11T12:38:14;16.40;99.90
5560;DHT22;2803;47.916;8.074;2022-11-11T12:40:52;16.30;99.90
5560;DHT22;2803;47.916;8.074;2022-11-11T12:43:27;16.20;99.90
5560;DHT22;2803;47.916;8.074;2022-11-11T12:45:59;16.50;99.90
5560;DHT22;2803;47.916;8.074;2022-11-11T12:48:37;16.20;99.90
5560;DHT22;2803;47.916;8.074;2022-11-11T12:51:16;16.40;99.90
5560;DHT22;2803;47.916;8.074;2022-11-11T12:53:51;16.50;99.90
5560;DHT22;2803;47.916;8.074;2022-11-11T12:56:27;16.50;99.90
5560;DHT22;2803;47.916;8.074;2022-11-11T12:59:01;16.40;99.90
5560;DHT22;2803;47.916;8.074;2022-11-11T13:01:40;16.60;99.90
5560;DHT22;2803;47.916;8.074;2022-11-11T13:04:27;16.70;99.90
5560;DHT22;2803;47.916;8.074;2022-11-11T13:07:10;16.70;99.90
5560;DHT22;2803;47.916;8.074;2022-11-11T13:10:00;16.60;99.90
5560;DHT22;2803;47.916;8.074;2022-11-11T13:12:33;16.60;99.90
5560;DHT22;2803;47.916;8.074;2022-11-11T13:15:09;16.70;99.90
5560;DHT22;2803;47.916;8.074;2022-11-11T13:17:37;16.70;99.90
5560;DHT22;2803;47.916;8.074;2022-11-11T13:20:14;16.80;99.90
5560;DHT22;2803;47.916;8.074;2022-11-11T13:22:42;16.80;99.90
5560;DHT22;2803;47.916;8.074;2022-11-11T13:25:13;16.80;99.90
5560;DHT22;2803;47.916;8.074;2022-11-11T13:27:46;16.70;99.90
5560;DHT22;2803;47.916;8.074;2022-11-11T13:30:28;16.70;99.90
5560;DHT22;2803;47.916;8.074;2022-11-11T13:33:01;16.70;99.90
5560;DHT22;2803;47.916;8.074;2022-11-11T13:35:33;16.80;99.90
5560;DHT22;2803;47.916;8.074;2022-11-11T13:38:01;16.80;99.90
5560;DHT22;2803;47.916;8.074;2022-11-11T13:40:34;16.80;99.90
5560;DHT22;2803;47.916;8.074;2022-11-11T13:43:02;16.50;99.90
5560;DHT22;2803;47.916;8.074;2022-11-11T13:45:33;16.70;99.90
5560;DHT22;2803;47.916;8.074;2022-11-11T13:48:02;16.50;99.90
5560;DHT22;2803;47.916;8.074;2022-11-11T13:50:32;16.50;99.90
5560;DHT22;2803;47.916;8.074;2022-11-11T13:53:03;16.50;99.90
5560;DHT22;2803;47.916;8.074;2022-11-11T13:55:32;16.40;99.90
5560;DHT22;2803;47.916;8.074;2022-11-11T13:58:00;16.50;99.90
5560;DHT22;2803;47.916;8.074;2022-11-11T14:00:31;16.50;99.90
5560;DHT22;2803;47.916;8.074;2022-11-11T14:08:54;16.40;99.90
5560;DHT22;2803;47.916;8.074;2022-11-11T14:11:28;16.40;99.90
5560;DHT22;2803;47.916;8.074;2022-11-11T14:13:56;16.20;99.90
5560;DHT22;2803;47.916;8.074;2022-11-11T14:19:28;16.20;99.90
5560;DHT22;2803;47.916;8.074;2022-11-11T14:21:58;16.20;99.90
5560;DHT22;2803;47.916;8.074;2022-11-11T14:24:33;16.20;99.90
5560;DHT22;2803;47.916;8.074;2022-11-11T14:27:01;16.20;99.90
5560;DHT22;2803;47.916;8.074;2022-11-11T14:29:31;16.30;99.90
5560;DHT22;2803;47.916;8.074;2022-11-11T14:32:09;16.40;99.90
5560;DHT22;2803;47.916;8.074;2022-11-11T14:34:47;16.40;99.90
5560;DHT22;2803;47.916;8.074;2022-11-11T14:37:25;16.30;99.90
5560;DHT22;2803;47.916;8.074;2022-11-11T14:39:56;16.30;99.90
5560;DHT22;2803;47.916;8.074;2022-11-11T14:42:45;16.20;99.90
5560;DHT22;2803;47.916;8.074;2022-11-11T14:51:34;16.00;99.90
5560;DHT22;2803;47.916;8.074;2022-11-11T14:54:03;16.00;99.90
5560;DHT22;2803;47.916;8.074;2022-11-11T14:56:32;15.90;99.90
5560;DHT22;2803;47.916;8.074;2022-11-11T14:59:05;15.70;99.90
5560;DHT22;2803;47.916;8.074;2022-11-11T15:01:33;15.60;99.90
5560;DHT22;2803;47.916;8.074;2022-11-11T15:04:02;15.60;99.90
5560;DHT22;2803;47.916;8.074;2022-11-11T15:06:34;15.50;99.90
5560;DHT22;2803;47.916;8.074;2022-11-11T15:09:08;15.40;99.90
5560;DHT22;2803;47.916;8.074;2022-11-11T15:11:43;15.20;99.90
5560;DHT22;2803;47.916;8.074;2022-11-11T15:14:19;15.10;99.90
5560;DHT22;2803;47.916;8.074;2022-11-11T15:16:57;15.00;99.90
5560;DHT22;2803;47.916;8.074;2022-11-11T15:19:37;14.90;99.90
5560;DHT22;2803;47.916;8.074;2022-11-11T15:22:32;14.90;99.90
5560;DHT22;2803;47.916;8.074;2022-11-11T15:25:13;14.90;99.90
5560;DHT22;2803;47.916;8.074;2022-11-11T15:27:52;14.80;99.90
5560;DHT22;2803;47.916;8.074;2022-11-11T15:30:21;14.80;99.90
5560;DHT22;2803;47.916;8.074;2022-11-11T15:32:59;14.80;99.90
5560;DHT22;2803;47.916;8.074;2022-11-11T15:35:33;14.70;99.90
5560;DHT22;2803;47.916;8.074;2022-11-11T15:38:03;14.50;99.90
5560;DHT22;2803;47.916;8.074;2022-11-11T15:40:40;14.50;99.90
5560;DHT22;2803;47.916;8.074;2022-11-11T15:43:14;14.40;99.90
5560;DHT22;2803;47.916;8.074;2022-11-11T15:45:42;13.60;99.90
5560;DHT22;2803;47.916;8.074;2022-11-11T15:48:16;13.70;99.90
5560;DHT22;2803;47.916;8.074;2022-11-11T15:50:45;13.70;99.90
5560;DHT22;2803;47.916;8.074;2022-11-11T15:53:13;13.70;99.90
5560;DHT22;2803;47.916;8.074;2022-11-11T15:55:40;13.70;99.90
5560;DHT22;2803;47.916;8.074;2022-11-11T15:58:09;13.70;99.90
5560;DHT22;2803;47.916;8.074;2022-11-11T16:00:38;13.60;99.90
5560;DHT22;2803;47.916;8.074;2022-11-11T16:03:05;13.60;99.90
5560;DHT22;2803;47.916;8.074;2022-11-11T16:05:32;13.60;99.90
5560;DHT22;2803;47.916;8.074;2022-11-11T16:08:02;13.10;99.90
5560;DHT22;2803;47.916;8.074;2022-11-11T16:10:35;12.90;99.90
5560;DHT22;2803;47.916;8.074;2022-11-11T16:13:06;13.10;99.90
5560;DHT22;2803;47.916;8.074;2022-11-11T16:15:41;13.20;99.90
5560;DHT22;2803;47.916;8.074;2022-11-11T16:18:14;13.20;99.90
5560;DHT22;2803;47.916;8.074;2022-11-11T16:20:47;13.20;99.90
5560;DHT22;2803;47.916;8.074;2022-11-11T16:23:16;13.00;99.90
5560;DHT22;2803;47.916;8.074;2022-11-11T16:25:45;13.00;99.90
5560;DHT22;2803;47.916;8.074;2022-11-11T16:28:14;12.90;99.90
5560;DHT22;2803;47.916;8.074;2022-11-11T16:30:42;12.80;99.90
5560;DHT22;2803;47.916;8.074;2022-11-11T16:33:33;12.50;99.90
5560;DHT22;2803;47.916;8.074;2022-11-11T16:36:08;12.40;99.90
5560;DHT22;2803;47.916;8.074;2022-11-11T16:38:35;12.50;99.90
5560;DHT22;2803;47.916;8.074;2022-11-11T16:41:03;12.50;99.90
5560;DHT22;2803;47.916;8.074;2022-11-11T16:43:31;12.50;99.90
5560;DHT22;2803;47.916;8.074;2022-11-11T16:46:04;12.40;99.90
5560;DHT22;2803;47.916;8.074;2022-11-11T16:48:43;12.10;99.90
5560;DHT22;2803;47.916;8.074;2022-11-11T16:51:12;12.20;99.90